Time;durP1;ratioP1;P1;durP2;ratioP2;P2;SDS_P1;SDS_P2;PMS_P1;PMS_P2;Temp;Humidity;BMP_temperature;BMP_pressure;BME280_temperature;BME280_humidity;BME280_pressure;Samples;Min_cycle;Max_cycle;Signal;HPM_P1;HPM_P2
2024/02/23 00:00:30;;;;;;;3.42;2.40;;;11.20;99.90;;;;;;2050573;28;20129;-74
2024/02/23 00:01:31;;;;;;;2.70;2.50;;;11.20;99.90;;;;;;2054642;28;20042;-75
2024/02/23 00:02:32;;;;;;;2.80;2.50;;;11.20;99.90;;;;;;2059336;28;20023;-75
2024/02/23 00:03:35;;;;;;;2.70;2.50;;;11.20;99.90;;;;;;2059029;28;20026;-75
2024/02/23 00:04:36;;;;;;;2.60;2.40;;;11.20;99.90;;;;;;2055267;28;20054;-75
2024/02/23 00:05:36;;;;;;;3.00;2.70;;;11.20;99.90;;;;;;2059356;28;20168;-74
2024/02/23 00:06:37;;;;;;;2.85;2.65;;;11.20;99.90;;;;;;2059186;28;20034;-75
2024/02/23 00:07:37;;;;;;;3.80;2.60;;;11.20;99.90;;;;;;2059144;28;20022;-76
2024/02/23 00:08:38;;;;;;;5.07;2.70;;;11.30;99.90;;;;;;2058024;28;20126;-76
2024/02/23 00:09:39;;;;;;;2.60;2.40;;;11.20;99.90;;;;;;2055988;28;20056;-76
2024/02/23 00:10:39;;;;;;;3.50;2.60;;;11.30;99.90;;;;;;2055120;28;20112;-76
2024/02/23 00:11:44;;;;;;;3.28;2.85;;;11.30;99.90;;;;;;2059458;28;20120;-76
2024/02/23 00:12:44;;;;;;;3.13;2.80;;;11.30;99.90;;;;;;2059350;28;20037;-76
2024/02/23 00:13:45;;;;;;;2.60;2.40;;;11.30;99.90;;;;;;2059140;28;20125;-76
2024/02/23 00:14:45;;;;;;;3.28;2.72;;;11.30;99.90;;;;;;2059079;28;20049;-76
2024/02/23 00:15:46;;;;;;;2.97;2.67;;;11.30;99.90;;;;;;2059109;28;20034;-76
2024/02/23 00:16:47;;;;;;;2.50;2.20;;;11.30;99.90;;;;;;2055287;28;20038;-76
2024/02/23 00:17:47;;;;;;;2.63;2.20;;;11.30;99.90;;;;;;2059075;28;20105;-75
2024/02/23 00:18:48;;;;;;;2.72;2.20;;;11.30;99.90;;;;;;2055203;28;20043;-76
2024/02/23 00:19:49;;;;;;;2.65;2.40;;;11.40;99.90;;;;;;2057332;28;20019;-75
2024/02/23 00:20:49;;;;;;;2.40;2.20;;;11.40;99.90;;;;;;2056471;28;20034;-76
2024/02/23 00:21:51;;;;;;;3.63;2.28;;;11.40;99.90;;;;;;2058589;28;20038;-76
2024/02/23 00:22:52;;;;;;;2.70;2.17;;;11.40;99.90;;;;;;2055275;28;20029;-76
2024/02/23 00:23:53;;;;;;;2.30;2.10;;;11.50;99.90;;;;;;2058948;28;20065;-76
2024/02/23 00:24:53;;;;;;;2.10;2.00;;;11.50;99.90;;;;;;2059218;28;20022;-76
2024/02/23 00:25:54;;;;;;;2.22;2.00;;;11.50;99.90;;;;;;2056044;28;20662;-76
2024/02/23 00:26:54;;;;;;;2.38;2.17;;;11.60;99.90;;;;;;2059240;28;20038;-75
2024/02/23 00:27:55;;;;;;;2.40;2.20;;;11.50;99.90;;;;;;2052461;28;20018;-76
2024/02/23 00:28:56;;;;;;;2.38;2.10;;;11.50;99.90;;;;;;2057901;28;20026;-75
2024/02/23 00:29:56;;;;;;;2.40;2.20;;;11.50;99.90;;;;;;2054943;28;20058;-76
2024/02/23 00:30:57;;;;;;;2.20;2.00;;;11.60;99.90;;;;;;2056695;28;20037;-75
2024/02/23 00:31:57;;;;;;;2.38;2.20;;;11.60;99.90;;;;;;2059054;28;20086;-76
2024/02/23 00:32:58;;;;;;;2.20;2.00;;;11.60;99.90;;;;;;2051936;28;20026;-76
2024/02/23 00:33:59;;;;;;;2.35;2.15;;;11.60;99.90;;;;;;2058278;28;20093;-76
2024/02/23 00:34:59;;;;;;;2.15;2.05;;;11.50;99.90;;;;;;2053776;28;20464;-76
2024/02/23 00:36:00;;;;;;;2.33;1.85;;;11.60;99.90;;;;;;2048544;28;20039;-75
2024/02/23 00:37:00;;;;;;;1.83;1.73;;;11.50;99.90;;;;;;2051142;28;20042;-76
2024/02/23 00:38:01;;;;;;;2.15;1.98;;;11.60;99.90;;;;;;2057805;28;20034;-75
2024/02/23 00:39:02;;;;;;;2.15;1.80;;;11.60;99.90;;;;;;2058584;28;20039;-75
2024/02/23 00:40:06;;;;;;;2.28;2.08;;;11.60;99.90;;;;;;2059100;28;20175;-72
2024/02/23 00:41:06;;;;;;;2.40;1.90;;;11.60;99.90;;;;;;2059056;28;20395;-72
2024/02/23 00:42:07;;;;;;;1.95;1.85;;;11.50;99.90;;;;;;2059243;28;20080;-73
2024/02/23 00:43:08;;;;;;;2.55;1.70;;;11.50;99.90;;;;;;2058865;28;20022;-73
2024/02/23 00:44:08;;;;;;;2.00;1.80;;;11.50;99.90;;;;;;2051372;28;20542;-73
2024/02/23 00:45:09;;;;;;;1.58;1.48;;;11.50;99.90;;;;;;2054634;28;20065;-73
2024/02/23 00:46:10;;;;;;;3.35;1.65;;;11.50;99.90;;;;;;2050959;28;20205;-73
2024/02/23 00:47:10;;;;;;;1.40;1.27;;;11.50;99.90;;;;;;2058842;28;20534;-73
2024/02/23 00:48:12;;;;;;;2.67;1.50;;;11.70;99.90;;;;;;2058365;28;20073;-73
2024/02/23 00:49:13;;;;;;;1.20;1.10;;;11.80;99.90;;;;;;2057990;28;20031;-73
2024/02/23 00:50:14;;;;;;;1.42;1.33;;;11.80;99.90;;;;;;2058950;28;20499;-74
2024/02/23 00:51:15;;;;;;;1.60;1.50;;;11.80;99.90;;;;;;2059119;28;20026;-73
2024/02/23 00:52:16;;;;;;;1.75;1.00;;;11.80;99.90;;;;;;2058988;28;20106;-73
2024/02/23 00:53:17;;;;;;;1.20;1.10;;;11.80;99.90;;;;;;2058207;28;20035;-73
2024/02/23 00:54:18;;;;;;;1.30;1.20;;;11.80;99.90;;;;;;2055969;28;20096;-72
2024/02/23 00:55:19;;;;;;;1.20;1.10;;;11.80;99.90;;;;;;2055241;28;20120;-73
2024/02/23 00:56:20;;;;;;;1.67;1.05;;;11.80;99.90;;;;;;2058441;28;20030;-73
2024/02/23 00:57:27;;;;;;;2.20;1.17;;;11.80;99.90;;;;;;2055440;28;20128;-72
2024/02/23 00:58:27;;;;;;;1.95;1.08;;;11.80;99.90;;;;;;2058644;28;20140;-73
2024/02/23 00:59:28;;;;;;;1.63;1.00;;;11.80;99.90;;;;;;2053507;28;20493;-72
2024/02/23 01:00:29;;;;;;;1.02;0.90;;;11.80;99.90;;;;;;2058170;28;20026;-73
2024/02/23 01:01:29;;;;;;;1.17;1.08;;;11.90;99.90;;;;;;2059467;28;20090;-73
2024/02/23 01:02:30;;;;;;;0.80;0.80;;;11.90;99.90;;;;;;2058874;28;20027;-73
2024/02/23 01:03:31;;;;;;;1.10;0.90;;;11.90;99.90;;;;;;2054743;28;20023;-73
2024/02/23 01:04:31;;;;;;;1.63;1.00;;;12.00;99.90;;;;;;2059036;28;20023;-72
2024/02/23 01:05:32;;;;;;;1.38;0.93;;;12.10;99.90;;;;;;2054604;28;20038;-73
2024/02/23 01:06:32;;;;;;;1.20;0.90;;;12.20;99.90;;;;;;2059134;28;20442;-73
2024/02/23 01:07:33;;;;;;;0.93;0.90;;;12.30;99.90;;;;;;2054608;28;20456;-73
2024/02/23 01:08:34;;;;;;;1.15;1.05;;;12.30;99.90;;;;;;2059136;28;20881;-73
2024/02/23 01:09:35;;;;;;;0.90;0.90;;;12.30;99.90;;;;;;2051145;28;20042;-73
2024/02/23 01:10:35;;;;;;;1.00;1.00;;;12.30;99.90;;;;;;2057548;28;20038;-73
2024/02/23 01:11:36;;;;;;;0.90;0.90;;;12.40;99.90;;;;;;2053814;28;20039;-73
2024/02/23 01:12:36;;;;;;;0.80;0.80;;;12.30;99.90;;;;;;2058251;28;20031;-73
2024/02/23 01:13:37;;;;;;;1.25;1.00;;;12.30;99.90;;;;;;2057889;28;20602;-73
2024/02/23 01:14:38;;;;;;;1.00;1.00;;;12.30;99.90;;;;;;2058246;28;20023;-73
2024/02/23 01:15:38;;;;;;;1.70;1.10;;;12.30;99.90;;;;;;2057919;28;20485;-73
2024/02/23 01:16:39;;;;;;;1.00;1.00;;;12.30;99.90;;;;;;2058962;28;20082;-74
2024/02/23 01:17:39;;;;;;;1.45;1.00;;;12.30;99.90;;;;;;2052425;28;23118;-73
2024/02/23 01:18:40;;;;;;;1.00;0.90;;;12.30;99.90;;;;;;2057347;28;20038;-72
2024/02/23 01:19:42;;;;;;;1.00;1.00;;;12.30;99.90;;;;;;2054744;28;20069;-72
2024/02/23 01:20:42;;;;;;;1.85;1.00;;;12.30;99.90;;;;;;2055987;28;20023;-72
2024/02/23 01:21:43;;;;;;;2.00;0.90;;;12.30;99.90;;;;;;2056634;28;20030;-73
2024/02/23 01:22:43;;;;;;;1.25;1.10;;;12.20;99.90;;;;;;2054172;28;20026;-73
2024/02/23 01:23:44;;;;;;;0.95;0.90;;;12.20;99.90;;;;;;2054819;28;20133;-73
2024/02/23 01:24:45;;;;;;;1.70;0.82;;;12.20;99.90;;;;;;2058040;28;20034;-73
2024/02/23 01:25:45;;;;;;;0.93;0.90;;;12.20;99.90;;;;;;2054423;28;20406;-73
2024/02/23 01:26:46;;;;;;;1.40;0.90;;;12.20;99.90;;;;;;2053910;28;20081;-74
2024/02/23 01:27:46;;;;;;;1.75;0.95;;;12.20;99.90;;;;;;2042476;28;20027;-73
2024/02/23 01:28:47;;;;;;;1.30;1.00;;;12.20;99.90;;;;;;2057786;28;20061;-73
2024/02/23 01:29:47;;;;;;;1.38;1.10;;;12.20;99.90;;;;;;2058396;28;20037;-74
2024/02/23 01:30:48;;;;;;;1.42;0.90;;;12.10;99.90;;;;;;2054756;28;20034;-73
2024/02/23 01:31:49;;;;;;;1.75;1.10;;;12.10;99.90;;;;;;2053470;28;20053;-72
2024/02/23 01:32:50;;;;;;;1.00;0.90;;;12.10;99.90;;;;;;2057890;28;20026;-73
2024/02/23 01:33:51;;;;;;;1.38;1.00;;;12.10;99.90;;;;;;2050041;28;20034;-73
2024/02/23 01:34:52;;;;;;;3.13;1.20;;;12.00;99.90;;;;;;2059045;28;20030;-74
2024/02/23 01:35:52;;;;;;;0.90;0.90;;;12.00;99.90;;;;;;2054636;28;20034;-73
2024/02/23 01:36:53;;;;;;;0.90;0.90;;;12.00;99.90;;;;;;2058619;28;20420;-72
2024/02/23 01:37:54;;;;;;;1.05;0.90;;;12.10;99.90;;;;;;2054694;28;20035;-73
2024/02/23 01:38:54;;;;;;;1.35;0.90;;;12.20;99.90;;;;;;2058692;28;20047;-73
2024/02/23 01:39:55;;;;;;;1.00;1.00;;;12.20;99.90;;;;;;2058099;28;20037;-74
2024/02/23 01:40:57;;;;;;;1.02;0.90;;;12.20;99.90;;;;;;2051251;28;20344;-73
2024/02/23 01:41:58;;;;;;;1.33;1.00;;;12.20;99.90;;;;;;2057983;28;20026;-73
2024/02/23 01:43:03;;;;;;;2.35;1.00;;;12.30;99.90;;;;;;2051930;28;20041;-73
2024/02/23 01:44:04;;;;;;;0.93;0.93;;;12.30;99.90;;;;;;2058734;28;20033;-72
2024/02/23 01:45:05;;;;;;;0.90;0.90;;;12.30;99.90;;;;;;2056749;28;20031;-74
2024/02/23 01:46:06;;;;;;;1.10;1.00;;;12.20;99.90;;;;;;2052883;28;20336;-72
2024/02/23 01:47:06;;;;;;;1.05;1.00;;;12.20;99.90;;;;;;2057857;28;20027;-72
2024/02/23 01:48:07;;;;;;;1.00;1.00;;;12.20;99.90;;;;;;2057929;28;20034;-72
2024/02/23 01:49:08;;;;;;;1.15;1.00;;;12.20;99.90;;;;;;2058770;28;20042;-73
2024/02/23 01:50:12;;;;;;;0.80;0.80;;;12.20;99.90;;;;;;2056776;28;20477;-73
2024/02/23 01:51:13;;;;;;;0.95;0.95;;;12.20;99.90;;;;;;2054942;28;20019;-73
2024/02/23 01:52:15;;;;;;;1.00;0.90;;;12.20;99.90;;;;;;2054887;28;20131;-73
2024/02/23 01:53:19;;;;;;;2.35;1.20;;;12.20;99.90;;;;;;2054756;28;20035;-73
2024/02/23 01:54:19;;;;;;;1.13;1.05;;;12.10;99.90;;;;;;2054492;28;20112;-73
2024/02/23 01:55:21;;;;;;;1.00;0.90;;;12.10;99.90;;;;;;2051454;28;20041;-72
2024/02/23 01:56:22;;;;;;;1.48;0.90;;;12.20;99.90;;;;;;2053688;28;20030;-74
2024/02/23 01:57:23;;;;;;;1.20;1.10;;;12.20;99.90;;;;;;2057869;28;20585;-73
2024/02/23 01:58:24;;;;;;;1.63;0.90;;;12.10;99.90;;;;;;2054755;28;20042;-73
2024/02/23 01:59:26;;;;;;;0.95;0.90;;;12.10;99.90;;;;;;2054803;28;20038;-71
2024/02/23 02:00:27;;;;;;;1.80;1.00;;;12.20;99.90;;;;;;2058597;28;20187;-72
2024/02/23 02:01:30;;;;;;;1.33;0.90;;;12.20;99.90;;;;;;2054717;28;20069;-73
2024/02/23 02:02:31;;;;;;;1.25;1.15;;;12.20;99.90;;;;;;2058688;28;20034;-73
2024/02/23 02:03:33;;;;;;;1.38;1.00;;;12.20;99.90;;;;;;2054779;28;20043;-73
2024/02/23 02:04:34;;;;;;;1.10;1.00;;;12.10;99.90;;;;;;2058863;28;20038;-72
2024/02/23 02:05:36;;;;;;;1.67;0.93;;;12.10;99.90;;;;;;2054519;28;20113;-73
2024/02/23 02:06:37;;;;;;;1.13;0.82;;;12.10;99.90;;;;;;2058492;28;20509;-72
2024/02/23 02:07:40;;;;;;;1.17;0.98;;;12.10;99.90;;;;;;2058859;28;20030;-72
2024/02/23 02:08:41;;;;;;;2.05;1.00;;;12.10;99.90;;;;;;2057256;28;20025;-72
2024/02/23 02:09:42;;;;;;;0.90;0.90;;;12.00;99.90;;;;;;2051982;28;20456;-72
2024/02/23 02:10:43;;;;;;;1.20;0.90;;;12.00;99.90;;;;;;2059917;28;20050;-73
2024/02/23 02:11:47;;;;;;;1.88;0.82;;;12.00;99.90;;;;;;2054280;28;20043;-72
2024/02/23 02:12:48;;;;;;;1.88;1.00;;;12.00;99.90;;;;;;2055674;28;20034;-73
2024/02/23 02:13:48;;;;;;;1.45;0.90;;;12.00;99.90;;;;;;2057822;28;20500;-73
2024/02/23 02:14:49;;;;;;;1.10;1.00;;;12.00;99.90;;;;;;2056196;28;20943;-74
2024/02/23 02:15:49;;;;;;;0.90;0.90;;;12.00;99.90;;;;;;2060274;28;20032;-73
2024/02/23 02:16:50;;;;;;;1.63;1.00;;;11.90;99.90;;;;;;2057197;28;20038;-73
2024/02/23 02:17:50;;;;;;;1.27;1.00;;;11.90;99.90;;;;;;2054776;28;20026;-72
2024/02/23 02:18:51;;;;;;;0.98;0.98;;;11.80;99.90;;;;;;2059383;28;20061;-74
2024/02/23 02:19:52;;;;;;;0.82;0.82;;;11.80;99.90;;;;;;2059200;28;20026;-73
2024/02/23 02:20:57;;;;;;;1.42;0.90;;;11.80;99.90;;;;;;2059144;28;20030;-73
2024/02/23 02:21:58;;;;;;;0.80;0.80;;;11.80;99.90;;;;;;2059152;28;20049;-73
2024/02/23 02:22:58;;;;;;;0.90;0.90;;;11.80;99.90;;;;;;2060005;28;20396;-73
2024/02/23 02:24:00;;;;;;;1.10;1.00;;;11.80;99.90;;;;;;2053542;28;20428;-73
2024/02/23 02:25:00;;;;;;;0.95;0.90;;;11.80;99.90;;;;;;2056468;28;20041;-73
2024/02/23 02:26:01;;;;;;;1.10;1.00;;;11.80;99.90;;;;;;2055993;28;20113;-73
2024/02/23 02:27:01;;;;;;;1.00;1.00;;;11.80;99.90;;;;;;2056352;28;20023;-74
2024/02/23 02:28:06;;;;;;;0.90;0.90;;;11.80;99.90;;;;;;2054789;28;20036;-73
2024/02/23 02:29:06;;;;;;;0.98;0.95;;;11.80;99.90;;;;;;2055323;28;20046;-73
2024/02/23 02:30:07;;;;;;;0.90;0.90;;;11.80;99.90;;;;;;2055969;28;20033;-71
2024/02/23 02:31:08;;;;;;;0.88;0.88;;;11.80;99.90;;;;;;2045629;28;20035;-71
2024/02/23 02:32:08;;;;;;;1.00;0.90;;;11.80;99.90;;;;;;2051527;28;20031;-73
2024/02/23 02:33:09;;;;;;;1.33;0.98;;;11.80;99.90;;;;;;2059955;28;20038;-72
2024/02/23 02:34:12;;;;;;;1.00;0.90;;;11.80;99.90;;;;;;2059763;28;20108;-74
2024/02/23 02:35:13;;;;;;;1.23;1.00;;;11.70;99.90;;;;;;2059405;28;20033;-72
2024/02/23 02:36:14;;;;;;;0.88;0.88;;;11.70;99.90;;;;;;2053869;28;20050;-72
2024/02/23 02:37:15;;;;;;;1.15;1.02;;;11.60;99.90;;;;;;2057207;28;20415;-72
2024/02/23 02:38:16;;;;;;;1.17;0.90;;;11.60;99.90;;;;;;2057781;28;20030;-73
2024/02/23 02:39:16;;;;;;;1.15;1.05;;;11.50;99.90;;;;;;2056204;28;20117;-72
2024/02/23 02:40:17;;;;;;;1.23;0.80;;;11.50;99.90;;;;;;2058390;28;20030;-84
2024/02/23 02:41:18;;;;;;;1.15;1.00;;;11.60;99.90;;;;;;2055733;28;20061;-73
2024/02/23 02:42:19;;;;;;;1.40;0.90;;;11.50;99.90;;;;;;2053894;28;20054;-86
2024/02/23 02:43:20;;;;;;;0.90;0.90;;;11.60;99.90;;;;;;2057603;28;20809;-81
2024/02/23 02:44:20;;;;;;;1.02;0.95;;;11.60;99.90;;;;;;2059224;28;20086;-82
2024/02/23 02:45:21;;;;;;;0.88;0.88;;;11.60;99.90;;;;;;2055111;28;20046;-83
2024/02/23 02:46:21;;;;;;;1.55;1.10;;;11.60;99.90;;;;;;2059535;28;20030;-83
2024/02/23 02:47:24;;;;;;;1.10;1.00;;;11.60;99.90;;;;;;2060697;28;20030;-82
2024/02/23 02:48:24;;;;;;;1.13;1.02;;;11.60;99.90;;;;;;2060237;28;20038;-83
2024/02/23 02:49:25;;;;;;;0.95;0.90;;;11.60;99.90;;;;;;2059422;28;20153;-83
2024/02/23 02:50:25;;;;;;;1.42;0.93;;;11.40;99.90;;;;;;2057516;28;20041;-83
2024/02/23 02:51:26;;;;;;;1.15;0.90;;;11.40;99.90;;;;;;2061810;28;20038;-84
2024/02/23 02:52:28;;;;;;;1.10;1.00;;;11.40;99.90;;;;;;2059016;28;20039;-82
2024/02/23 02:53:28;;;;;;;2.25;1.10;;;11.40;99.90;;;;;;2059987;28;20061;-83
2024/02/23 02:54:29;;;;;;;2.33;0.90;;;11.30;99.90;;;;;;2061266;28;20176;-82
2024/02/23 02:55:30;;;;;;;1.00;1.00;;;11.40;99.90;;;;;;2061339;28;20030;-82
2024/02/23 02:56:30;;;;;;;1.00;0.80;;;11.40;99.90;;;;;;2061663;28;20033;-82
2024/02/23 02:57:31;;;;;;;1.05;0.90;;;11.40;99.90;;;;;;2058477;28;20038;-82
2024/02/23 02:58:31;;;;;;;1.95;1.00;;;11.40;99.90;;;;;;2060027;28;20030;-83
2024/02/23 02:59:35;;;;;;;2.03;1.10;;;11.40;99.90;;;;;;2060940;28;20034;-81
2024/02/23 03:00:36;;;;;;;2.10;1.00;;;11.40;99.90;;;;;;2057300;28;20081;-81
2024/02/23 03:01:37;;;;;;;1.10;1.00;;;11.40;99.90;;;;;;2060612;28;20037;-80
2024/02/23 03:02:38;;;;;;;1.10;1.00;;;11.30;99.90;;;;;;2061621;28;20030;-81
2024/02/23 03:03:38;;;;;;;1.70;1.10;;;11.40;99.90;;;;;;2061508;28;20068;-81
2024/02/23 03:04:39;;;;;;;3.15;0.93;;;11.40;99.90;;;;;;2061810;28;20030;-80
2024/02/23 03:05:39;;;;;;;1.08;0.98;;;11.40;99.90;;;;;;2064526;28;20030;-81
2024/02/23 03:06:40;;;;;;;1.15;0.90;;;11.40;99.90;;;;;;2064481;28;20030;-79
2024/02/23 03:07:40;;;;;;;1.35;1.02;;;11.30;99.90;;;;;;2063723;28;20026;-80
2024/02/23 03:08:44;;;;;;;1.75;1.08;;;11.30;99.90;;;;;;2064406;28;20026;-82
2024/02/23 03:09:45;;;;;;;0.90;0.90;;;11.30;99.90;;;;;;2060981;28;20034;-76
2024/02/23 03:10:45;;;;;;;1.25;1.00;;;11.30;99.90;;;;;;2065356;28;20030;-79
2024/02/23 03:11:46;;;;;;;0.90;0.82;;;11.30;99.90;;;;;;2059891;28;20031;-82
2024/02/23 03:12:46;;;;;;;1.05;0.80;;;11.30;99.90;;;;;;2064909;28;20034;-81
2024/02/23 03:13:47;;;;;;;1.25;0.90;;;11.30;99.90;;;;;;2064390;28;20057;-81
2024/02/23 03:14:48;;;;;;;1.02;0.93;;;11.20;99.90;;;;;;2062920;28;20062;-80
2024/02/23 03:15:48;;;;;;;2.63;0.90;;;11.20;99.90;;;;;;2057215;28;20030;-81
2024/02/23 03:16:49;;;;;;;1.67;0.90;;;11.20;99.90;;;;;;2054115;28;20035;-82
2024/02/23 03:17:49;;;;;;;0.95;0.80;;;11.20;99.90;;;;;;2061070;28;20026;-83
2024/02/23 03:18:50;;;;;;;1.90;0.90;;;11.20;99.90;;;;;;2061824;28;20489;-82
2024/02/23 03:19:51;;;;;;;1.38;0.93;;;11.10;99.90;;;;;;2060917;28;20053;-82
2024/02/23 03:20:51;;;;;;;1.92;1.00;;;11.10;99.90;;;;;;2061237;28;20022;-82
2024/02/23 03:21:52;;;;;;;1.10;0.80;;;11.20;99.90;;;;;;2057018;28;20019;-80
2024/02/23 03:22:52;;;;;;;2.08;0.95;;;11.10;99.90;;;;;;2061274;28;20033;-81
2024/02/23 03:23:53;;;;;;;0.82;0.82;;;11.10;99.90;;;;;;2061050;28;20472;-80
2024/02/23 03:24:53;;;;;;;2.80;0.93;;;11.10;99.90;;;;;;2060627;28;20061;-82
2024/02/23 03:25:54;;;;;;;1.02;0.93;;;11.10;99.90;;;;;;2061831;28;20151;-83
2024/02/23 03:26:55;;;;;;;1.02;0.90;;;11.10;99.90;;;;;;2060468;28;20092;-80
2024/02/23 03:27:56;;;;;;;1.00;0.80;;;11.10;99.90;;;;;;2057460;28;20065;-79
2024/02/23 03:28:56;;;;;;;2.40;1.10;;;11.10;99.90;;;;;;2059967;28;20041;-80
2024/02/23 03:29:57;;;;;;;0.93;0.85;;;11.10;99.90;;;;;;2062100;28;20033;-82
2024/02/23 03:30:57;;;;;;;2.08;0.90;;;11.00;99.90;;;;;;2057953;28;20106;-82
2024/02/23 03:31:58;;;;;;;2.20;1.10;;;11.00;99.90;;;;;;2060713;28;20033;-82
2024/02/23 03:32:59;;;;;;;1.20;1.00;;;11.00;99.90;;;;;;2060634;28;20030;-82
2024/02/23 03:33:59;;;;;;;1.48;0.85;;;11.00;99.90;;;;;;2056748;28;20541;-81
2024/02/23 03:35:00;;;;;;;1.20;0.90;;;11.00;99.90;;;;;;2060174;28;20033;-81
2024/02/23 03:36:00;;;;;;;1.80;0.85;;;10.90;99.90;;;;;;2059225;28;20519;-82
2024/02/23 03:37:02;;;;;;;1.20;1.00;;;11.00;99.90;;;;;;2061290;28;20033;-83
2024/02/23 03:38:03;;;;;;;2.13;1.00;;;10.90;99.90;;;;;;2061950;28;20508;-82
2024/02/23 03:39:03;;;;;;;0.80;0.80;;;10.80;99.90;;;;;;2059131;28;20129;-82
2024/02/23 03:40:08;;;;;;;0.88;0.88;;;10.80;99.90;;;;;;2060918;28;20038;-83
2024/02/23 03:41:08;;;;;;;2.10;0.98;;;10.80;99.90;;;;;;2061441;28;20365;-82
2024/02/23 03:42:09;;;;;;;2.00;0.93;;;10.80;99.90;;;;;;2059702;28;20081;-81
2024/02/23 03:43:09;;;;;;;1.95;0.85;;;10.80;99.90;;;;;;2059465;28;20254;-80
2024/02/23 03:44:10;;;;;;;1.13;0.88;;;10.70;99.90;;;;;;2059407;28;20113;-83
2024/02/23 03:45:11;;;;;;;1.70;0.90;;;10.70;99.90;;;;;;2061586;28;20484;-82
2024/02/23 03:46:11;;;;;;;1.73;1.08;;;10.70;99.90;;;;;;2061080;28;20456;-83
2024/02/23 03:47:12;;;;;;;1.48;0.90;;;10.70;99.90;;;;;;2061656;28;20025;-82
2024/02/23 03:48:13;;;;;;;1.80;0.88;;;10.70;99.90;;;;;;2061022;28;20029;-81
2024/02/23 03:49:13;;;;;;;2.17;0.90;;;10.70;99.90;;;;;;2061262;28;20042;-82
2024/02/23 03:50:14;;;;;;;0.80;0.80;;;10.70;99.90;;;;;;2061073;28;20038;-81
2024/02/23 03:51:15;;;;;;;1.88;0.90;;;10.70;99.90;;;;;;2061086;28;20049;-83
2024/02/23 03:52:15;;;;;;;1.67;0.90;;;10.70;99.90;;;;;;2058248;28;20279;-81
2024/02/23 03:53:16;;;;;;;2.33;0.80;;;10.70;99.90;;;;;;2059367;28;20564;-82
2024/02/23 03:54:17;;;;;;;1.17;0.98;;;10.60;99.90;;;;;;2056895;28;20034;-82
2024/02/23 03:55:17;;;;;;;1.17;0.88;;;10.60;99.90;;;;;;2056684;28;20068;-81
2024/02/23 03:56:18;;;;;;;1.13;0.70;;;10.60;99.90;;;;;;2059802;28;20035;-82
2024/02/23 03:57:18;;;;;;;2.30;0.70;;;10.60;99.90;;;;;;2061315;28;20034;-81
2024/02/23 03:58:19;;;;;;;3.40;0.80;;;10.50;99.90;;;;;;2061141;28;20041;-81
2024/02/23 03:59:20;;;;;;;0.70;0.70;;;10.50;99.90;;;;;;2053319;28;20209;-81
2024/02/23 04:00:22;;;;;;;0.70;0.70;;;10.50;99.90;;;;;;2058896;28;20055;-82
2024/02/23 04:01:23;;;;;;;1.65;0.60;;;10.40;99.90;;;;;;2061030;28;20034;-81
2024/02/23 04:02:24;;;;;;;1.65;0.82;;;10.40;99.90;;;;;;2060935;28;20042;-79
2024/02/23 04:03:24;;;;;;;1.35;0.60;;;10.40;99.90;;;;;;2060883;28;20030;-80
2024/02/23 04:04:25;;;;;;;1.52;0.82;;;10.30;99.90;;;;;;2057071;28;20034;-80
2024/02/23 04:05:25;;;;;;;1.17;0.70;;;10.30;99.90;;;;;;2056626;28;20043;-80
2024/02/23 04:06:26;;;;;;;1.30;0.70;;;10.20;99.90;;;;;;2059550;28;20026;-81
2024/02/23 04:07:26;;;;;;;1.55;0.98;;;10.20;99.90;;;;;;2057551;28;20053;-82
2024/02/23 04:08:27;;;;;;;2.47;0.98;;;10.20;99.90;;;;;;2062116;28;20077;-81
2024/02/23 04:09:28;;;;;;;0.95;0.80;;;10.20;99.90;;;;;;2060891;28;20450;-81
2024/02/23 04:10:28;;;;;;;0.98;0.80;;;10.20;99.90;;;;;;2061196;28;20030;-79
2024/02/23 04:11:29;;;;;;;0.98;0.80;;;10.10;99.90;;;;;;2060266;28;20144;-81
2024/02/23 04:12:31;;;;;;;3.05;0.80;;;10.10;99.90;;;;;;2059664;28;20038;-80
2024/02/23 04:13:31;;;;;;;1.35;0.70;;;10.10;99.90;;;;;;2057670;28;20030;-80
2024/02/23 04:14:33;;;;;;;0.60;0.60;;;10.10;99.90;;;;;;2060919;28;20089;-81
2024/02/23 04:15:34;;;;;;;1.08;0.88;;;10.10;99.90;;;;;;2061503;28;20034;-80
2024/02/23 04:16:35;;;;;;;1.05;0.70;;;10.10;99.90;;;;;;2060890;28;20444;-82
2024/02/23 04:17:35;;;;;;;0.80;0.70;;;10.10;99.90;;;;;;2060430;28;20038;-81
2024/02/23 04:18:36;;;;;;;2.75;0.80;;;10.10;99.90;;;;;;2056840;28;20130;-83
2024/02/23 04:19:36;;;;;;;1.15;0.70;;;10.10;99.90;;;;;;2061325;28;20030;-83
2024/02/23 04:20:37;;;;;;;0.80;0.80;;;10.10;99.90;;;;;;2059711;28;20042;-83
2024/02/23 04:21:37;;;;;;;1.48;0.80;;;10.00;99.90;;;;;;2057953;28;20258;-82
2024/02/23 04:22:38;;;;;;;0.70;0.70;;;10.00;99.90;;;;;;2056286;28;20054;-80
2024/02/23 04:23:38;;;;;;;1.83;0.80;;;10.00;99.90;;;;;;2050087;28;20027;-82
2024/02/23 04:24:40;;;;;;;2.28;0.90;;;10.00;99.90;;;;;;2058168;28;20038;-82
2024/02/23 04:25:41;;;;;;;1.55;1.00;;;9.90;99.90;;;;;;2061309;28;20827;-82
2024/02/23 04:26:41;;;;;;;3.42;0.80;;;9.90;99.90;;;;;;2056782;28;20027;-82
2024/02/23 04:27:43;;;;;;;2.83;0.70;;;9.90;99.90;;;;;;2057489;28;20135;-81
2024/02/23 04:28:43;;;;;;;1.42;0.80;;;9.90;99.90;;;;;;2058354;28;20071;-83
2024/02/23 04:29:44;;;;;;;1.10;0.70;;;9.80;99.90;;;;;;2058860;28;20583;-82
2024/02/23 04:30:44;;;;;;;1.17;0.80;;;9.80;99.90;;;;;;2060596;28;20057;-83
2024/02/23 04:31:45;;;;;;;0.75;0.70;;;9.80;99.90;;;;;;2057694;28;20041;-79
2024/02/23 04:32:45;;;;;;;1.80;0.90;;;9.80;99.90;;;;;;2052878;28;20049;-82
2024/02/23 04:33:46;;;;;;;1.42;0.70;;;9.80;99.90;;;;;;2056277;28;20473;-81
2024/02/23 04:34:46;;;;;;;1.33;0.70;;;9.80;99.90;;;;;;2058721;28;20030;-81
2024/02/23 04:35:47;;;;;;;0.82;0.70;;;9.80;99.90;;;;;;2060957;28;20034;-82
2024/02/23 04:36:47;;;;;;;2.17;0.95;;;9.70;99.90;;;;;;2060756;28;20453;-81
2024/02/23 04:37:49;;;;;;;1.58;1.00;;;9.70;99.90;;;;;;2061412;28;20496;-80
2024/02/23 04:38:50;;;;;;;2.22;1.00;;;9.70;99.90;;;;;;2060377;28;20030;-84
2024/02/23 04:39:50;;;;;;;2.30;0.90;;;9.70;99.90;;;;;;2060903;28;20042;-83
2024/02/23 04:40:51;;;;;;;2.28;0.90;;;9.70;99.90;;;;;;2061184;28;20112;-83
2024/02/23 04:41:54;;;;;;;1.65;0.80;;;9.70;99.90;;;;;;2056791;28;20030;-82
2024/02/23 04:42:55;;;;;;;3.03;0.90;;;9.60;99.90;;;;;;2060899;28;20061;-82
2024/02/23 04:43:59;;;;;;;1.80;0.90;;;9.60;99.90;;;;;;2059910;28;20019;-81
2024/02/23 04:45:00;;;;;;;1.40;0.80;;;9.60;99.90;;;;;;2056005;28;20436;-82
2024/02/23 04:46:01;;;;;;;3.88;0.90;;;9.60;99.90;;;;;;2060100;28;20034;-81
2024/02/23 04:47:02;;;;;;;1.48;0.80;;;9.60;99.90;;;;;;2060219;28;20014;-82
2024/02/23 04:48:03;;;;;;;1.40;0.70;;;9.60;99.90;;;;;;2060861;28;20026;-81
2024/02/23 04:49:04;;;;;;;1.23;0.90;;;9.60;99.90;;;;;;2060184;28;20023;-81
2024/02/23 04:50:05;;;;;;;2.75;1.08;;;9.50;99.90;;;;;;2060742;28;20044;-80
2024/02/23 04:51:09;;;;;;;4.05;1.10;;;9.50;99.90;;;;;;2060577;28;20029;-81
2024/02/23 04:52:10;;;;;;;1.33;0.90;;;9.40;99.90;;;;;;2060895;28;20026;-82
2024/02/23 04:53:10;;;;;;;0.70;0.70;;;9.40;99.90;;;;;;2059243;28;20054;-80
2024/02/23 04:54:11;;;;;;;1.30;1.00;;;9.40;99.90;;;;;;2055348;28;20023;-80
2024/02/23 04:55:12;;;;;;;2.53;1.00;;;9.50;99.90;;;;;;2060372;28;20394;-83
2024/02/23 04:56:12;;;;;;;3.17;1.00;;;9.40;99.90;;;;;;2059972;28;20037;-81
2024/02/23 04:57:13;;;;;;;2.30;1.40;;;9.40;99.90;;;;;;2059481;28;20030;-81
2024/02/23 04:58:13;;;;;;;1.85;1.30;;;9.40;99.90;;;;;;2059644;28;20031;-81
2024/02/23 04:59:14;;;;;;;2.25;1.00;;;9.40;99.90;;;;;;2058827;28;20034;-82
2024/02/23 05:00:15;;;;;;;2.70;0.90;;;9.30;99.90;;;;;;2055468;28;20110;-80
2024/02/23 05:01:15;;;;;;;1.48;0.80;;;9.30;99.90;;;;;;2058704;28;20037;-80
2024/02/23 05:02:16;;;;;;;2.08;0.90;;;9.30;99.90;;;;;;2060325;28;20025;-80
2024/02/23 05:03:17;;;;;;;3.20;1.00;;;9.30;99.90;;;;;;2055309;28;20441;-81
2024/02/23 05:04:17;;;;;;;1.58;0.93;;;9.40;99.90;;;;;;2056020;28;20031;-81
2024/02/23 05:05:18;;;;;;;3.05;1.00;;;9.40;99.90;;;;;;2059411;28;20043;-80
2024/02/23 05:06:18;;;;;;;2.28;0.82;;;9.40;99.90;;;;;;2055981;28;20401;-80
2024/02/23 05:07:19;;;;;;;2.85;0.90;;;9.40;99.90;;;;;;2059833;28;20117;-79
2024/02/23 05:08:20;;;;;;;2.70;0.90;;;9.40;99.90;;;;;;2056863;28;20182;-79
2024/02/23 05:09:21;;;;;;;1.33;0.80;;;9.40;99.90;;;;;;2057252;28;20046;-80
2024/02/23 05:10:22;;;;;;;1.30;0.80;;;9.40;99.90;;;;;;2053401;28;20054;-79
2024/02/23 05:11:23;;;;;;;2.10;0.90;;;9.40;99.90;;;;;;2057834;28;20412;-79
2024/02/23 05:12:23;;;;;;;3.55;1.00;;;9.40;99.90;;;;;;2058406;28;20034;-80
2024/02/23 05:13:24;;;;;;;1.88;0.90;;;9.30;99.90;;;;;;2057547;28;20117;-80
2024/02/23 05:14:26;;;;;;;2.50;1.23;;;9.30;99.90;;;;;;2058005;28;20022;-80
2024/02/23 05:15:27;;;;;;;1.95;0.90;;;9.30;99.90;;;;;;2057353;28;20038;-79
2024/02/23 05:16:28;;;;;;;1.38;0.85;;;9.30;99.90;;;;;;2057102;28;20532;-80
2024/02/23 05:17:28;;;;;;;2.42;1.20;;;9.30;99.90;;;;;;2054543;28;20634;-80